Time;durP1;ratioP1;P1;durP2;ratioP2;P2;SDS_P1;SDS_P2;PMS_P1;PMS_P2;Temp;Humidity;BMP_temperature;BMP_pressure;BME280_temperature;BME280_humidity;BME280_pressure;Samples;Min_cycle;Max_cycle;Signal;HPM_P1;HPM_P2
2022/01/10 00:01:08;;;;;;;21.42;10.68;;;;;;;-0.37;100.00;101010.41;4975829;28;20648;-69
2022/01/10 00:03:33;;;;;;;25.95;12.48;;;;;;;-0.30;100.00;101024.31;4973670;28;20069;-69
2022/01/10 00:05:59;;;;;;;24.95;12.55;;;;;;;-0.40;100.00;101010.53;4976550;28;20462;-69
2022/01/10 00:08:24;;;;;;;28.52;12.75;;;;;;;-0.37;100.00;101015.69;4956214;28;20041;-69
2022/01/10 00:10:51;;;;;;;25.85;11.70;;;;;;;-0.29;100.00;101033.06;4956250;28;20053;-69
2022/01/10 00:13:16;;;;;;;30.67;14.02;;;;;;;-0.34;100.00;101020.03;4991962;28;20026;-69
2022/01/10 00:15:42;;;;;;;32.33;11.70;;;;;;;-0.20;100.00;101031.03;4980903;28;20033;-69
2022/01/10 00:18:07;;;;;;;39.50;16.17;;;;;;;-0.20;100.00;101033.66;4974206;28;20106;-69
2022/01/10 00:20:33;;;;;;;31.08;12.52;;;;;;;-0.29;100.00;101022.53;4979110;28;20026;-69
2022/01/10 00:22:58;;;;;;;28.70;12.88;;;;;;;-0.26;100.00;101031.19;4965996;28;20030;-70
2022/01/10 00:25:24;;;;;;;28.25;13.40;;;;;;;-0.36;100.00;101027.97;4977298;28;20089;-70
2022/01/10 00:27:52;;;;;;;38.30;16.73;;;;;;;-0.23;100.00;101051.38;4963944;28;20117;-69
2022/01/10 00:30:18;;;;;;;31.55;13.65;;;;;;;-0.25;100.00;101056.69;4979506;28;20022;-69
2022/01/10 00:32:44;;;;;;;27.95;13.32;;;;;;;-0.28;100.00;101059.44;4982212;28;20046;-69
2022/01/10 00:35:10;;;;;;;26.10;13.23;;;;;;;-0.35;100.00;101065.78;4978789;28;20537;-69
2022/01/10 00:37:36;;;;;;;23.85;12.02;;;;;;;-0.48;100.00;101054.72;4983901;28;20110;-69
2022/01/10 00:40:03;;;;;;;29.27;13.18;;;;;;;-0.40;100.00;101071.22;4977132;28;20038;-69
2022/01/10 00:42:30;;;;;;;35.80;12.88;;;;;;;-0.43;100.00;101071.28;4980754;28;20436;-69
2022/01/10 00:44:57;;;;;;;31.88;13.73;;;;;;;-0.43;100.00;101076.56;4977507;28;20465;-69
2022/01/10 00:47:22;;;;;;;27.25;13.82;;;;;;;-0.53;100.00;101057.47;4979107;28;20535;-69
2022/01/10 00:49:48;;;;;;;36.40;14.88;;;;;;;-0.45;100.00;101067.84;4981685;28;20086;-69
2022/01/10 00:52:13;;;;;;;26.92;14.00;;;;;;;-0.40;100.00;101067.69;4963513;28;20065;-69
2022/01/10 00:54:39;;;;;;;22.90;13.07;;;;;;;-0.34;100.00;101088.63;4977159;28;20128;-70
2022/01/10 00:57:05;;;;;;;33.22;13.98;;;;;;;-0.42;100.00;101094.13;4976524;28;20038;-69
2022/01/10 00:59:30;;;;;;;30.77;14.35;;;;;;;-0.41;100.00;101097.63;4980418;28;20026;-69
2022/01/10 01:01:56;;;;;;;38.10;14.55;;;;;;;-0.46;100.00;101080.13;4977477;28;20451;-69
2022/01/10 01:04:21;;;;;;;33.47;15.02;;;;;;;-0.55;100.00;101071.63;4977189;28;20073;-69
2022/01/10 01:06:47;;;;;;;49.55;21.38;;;;;;;-0.28;100.00;101103.41;4990512;28;20058;-69
2022/01/10 01:09:16;;;;;;;32.05;15.13;;;;;;;-0.31;100.00;101118.44;4977645;28;20461;-69
2022/01/10 01:14:38;;;;;;;27.95;13.07;;;;;;;-0.54;100.00;101116.44;4975486;28;20105;-69
2022/01/10 01:17:15;;;;;;;29.63;14.10;;;;;;;-0.51;100.00;101134.78;4976550;28;20049;-69
2022/01/10 01:20:03;;;;;;;35.50;14.65;;;;;;;-0.50;100.00;101131.25;4979536;28;20038;-69
2022/01/10 01:25:13;;;;;;;36.53;13.68;;;;;;;-0.48;100.00;101150.53;4972597;28;22031;-69
2022/01/10 01:27:40;;;;;;;25.67;13.93;;;;;;;-0.46;100.00;101153.16;4991713;28;20034;-69
2022/01/10 01:30:07;;;;;;;30.48;13.80;;;;;;;-0.47;100.00;101141.72;4975542;28;20061;-69
2022/01/10 01:32:33;;;;;;;32.97;14.00;;;;;;;-0.52;100.00;101137.47;4977638;28;20142;-69
2022/01/10 01:35:04;;;;;;;30.88;14.00;;;;;;;-0.49;100.00;101153.22;4976064;28;20042;-69
2022/01/10 01:37:29;;;;;;;31.77;14.13;;;;;;;-0.58;100.00;101150.81;4977222;28;20061;-69
2022/01/10 01:39:55;;;;;;;34.22;15.02;;;;;;;-0.47;100.00;101173.38;4977795;28;20779;-69
2022/01/10 01:42:34;;;;;;;31.13;14.55;;;;;;;-0.50;100.00;101173.47;4978582;28;20015;-69
2022/01/10 01:45:00;;;;;;;33.08;16.52;;;;;;;-0.38;100.00;101187.25;4992674;28;20022;-69
2022/01/10 01:47:26;;;;;;;31.02;15.23;;;;;;;-0.46;100.00;101175.09;4980694;28;20063;-69
2022/01/10 01:49:51;;;;;;;35.08;14.63;;;;;;;-0.43;100.00;101176.81;4982707;28;20061;-69
2022/01/10 01:52:17;;;;;;;36.28;13.68;;;;;;;-0.53;100.00;101170.03;4980513;28;20485;-69
2022/01/10 01:54:42;;;;;;;29.70;14.88;;;;;;;-0.46;100.00;101198.84;4979911;28;20891;-69
2022/01/10 01:57:07;;;;;;;31.05;15.27;;;;;;;-0.54;100.00;101189.41;4978289;28;20048;-69
2022/01/10 01:59:35;;;;;;;38.05;15.38;;;;;;;-0.51;100.00;101203.38;4976878;28;20023;-69
2022/01/10 02:02:00;;;;;;;29.10;14.45;;;;;;;-0.56;100.00;101214.97;4975389;28;20048;-69
2022/01/10 02:04:26;;;;;;;25.52;13.77;;;;;;;-0.62;100.00;101205.44;4980095;28;20030;-69
2022/01/10 02:06:51;;;;;;;30.45;14.00;;;;;;;-0.70;100.00;101195.09;4977555;28;20160;-69
2022/01/10 02:09:17;;;;;;;31.23;14.68;;;;;;;-0.65;100.00;101198.44;4964365;28;20053;-69
2022/01/10 02:11:42;;;;;;;30.17;15.13;;;;;;;-0.70;100.00;101197.72;4976901;28;20030;-69
2022/01/10 02:14:08;;;;;;;30.27;14.98;;;;;;;-0.66;100.00;101215.19;4978794;28;20034;-73
2022/01/10 02:16:43;;;;;;;31.13;14.52;;;;;;;-0.69;100.00;101219.69;4976809;28;20050;-71
2022/01/10 02:19:09;;;;;;;33.40;14.45;;;;;;;-0.71;100.00;101221.47;4978061;28;20395;-70
2022/01/10 02:21:35;;;;;;;33.05;14.70;;;;;;;-0.68;100.00;101217.03;4980088;28;20030;-70
2022/01/10 02:24:00;;;;;;;33.45;14.40;;;;;;;-0.69;100.00;101225.84;4973665;28;20122;-71
2022/01/10 02:26:25;;;;;;;27.33;12.13;;;;;;;-0.93;100.00;101207.03;4981833;28;20030;-71
2022/01/10 02:28:51;;;;;;;23.65;12.30;;;;;;;-0.96;100.00;101216.81;4979257;28;20069;-70
2022/01/10 02:31:16;;;;;;;33.90;13.90;;;;;;;-0.91;100.00;101242.16;4981726;28;20480;-69
2022/01/10 02:33:42;;;;;;;25.75;11.40;;;;;;;-0.99;100.00;101241.47;4982231;28;20399;-69
2022/01/10 02:36:24;;;;;;;25.50;12.05;;;;;;;-1.04;100.00;101247.75;4979865;28;20081;-70
2022/01/10 02:38:55;;;;;;;22.25;11.82;;;;;;;-1.40;100.00;101236.22;4976438;28;20026;-69
2022/01/10 02:41:28;;;;;;;25.25;12.05;;;;;;;-1.55;100.00;101239.19;4977955;28;20029;-70
2022/01/10 02:43:58;;;;;;;23.50;12.48;;;;;;;-1.55;100.00;101254.97;4978223;28;20456;-70
2022/01/10 02:46:24;;;;;;;44.17;12.13;;;;;;;-1.81;100.00;101269.53;4974355;28;20026;-70
2022/01/10 02:48:50;;;;;;;23.98;10.98;;;;;;;-1.91;100.00;101263.56;4977513;28;20432;-69
2022/01/10 02:51:15;;;;;;;27.50;13.07;;;;;;;-1.91;100.00;101273.25;4982557;28;20026;-69
2022/01/10 02:53:41;;;;;;;29.50;12.80;;;;;;;-1.99;100.00;101271.63;4973876;28;20084;-69
2022/01/10 02:56:06;;;;;;;22.90;11.73;;;;;;;-1.85;100.00;101286.28;4977249;28;20515;-70
2022/01/10 02:58:32;;;;;;;32.67;15.38;;;;;;;-1.79;100.00;101295.84;4977627;28;22285;-70
2022/01/10 03:00:57;;;;;;;29.98;14.40;;;;;;;-1.72;100.00;101298.31;4977912;28;20053;-69
2022/01/10 03:03:26;;;;;;;34.35;14.27;;;;;;;-1.64;100.00;101297.31;4977143;28;20030;-69
2022/01/10 03:05:51;;;;;;;34.08;16.45;;;;;;;-1.60;100.00;101289.31;4990014;28;20488;-69
2022/01/10 03:08:17;;;;;;;32.85;16.17;;;;;;;-1.54;100.00;101290.94;4975626;28;20113;-70
2022/01/10 03:10:42;;;;;;;37.20;16.95;;;;;;;-1.41;100.00;101300.34;4975495;28;20037;-69
2022/01/10 03:13:07;;;;;;;37.00;16.65;;;;;;;-1.45;100.00;101298.69;4976640;28;20038;-70
2022/01/10 03:15:33;;;;;;;40.78;16.02;;;;;;;-1.36;100.00;101309.03;4961878;28;20080;-70
2022/01/10 03:17:58;;;;;;;39.13;17.52;;;;;;;-1.33;100.00;101318.63;4960433;28;20073;-69
2022/01/10 03:20:23;;;;;;;41.47;16.73;;;;;;;-1.33;100.00;101305.47;4974229;28;20560;-70
2022/01/10 03:22:50;;;;;;;38.30;17.25;;;;;;;-1.23;100.00;101314.91;4976193;28;20022;-70
2022/01/10 03:25:16;;;;;;;39.10;16.35;;;;;;;-1.30;100.00;101309.78;4978344;28;21305;-69
2022/01/10 03:27:41;;;;;;;33.22;15.27;;;;;;;-1.21;100.00;101334.19;4980760;28;20061;-70
2022/01/10 03:30:07;;;;;;;33.53;15.25;;;;;;;-1.29;100.00;101315.03;4975637;28;20030;-70
2022/01/10 03:32:32;;;;;;;35.70;16.25;;;;;;;-1.23;100.00;101332.47;4976674;28;20026;-70
2022/01/10 03:34:58;;;;;;;36.40;15.35;;;;;;;-1.15;100.00;101341.09;4975306;28;20045;-70
2022/01/10 03:37:24;;;;;;;39.22;16.27;;;;;;;-1.18;100.00;101346.44;4976977;28;20393;-70
2022/01/10 03:39:50;;;;;;;36.85;16.85;;;;;;;-1.16;100.00;101355.19;4976853;28;20046;-70
2022/01/10 03:42:15;;;;;;;34.10;15.45;;;;;;;-1.22;100.00;101355.28;4975847;28;20117;-70
2022/01/10 03:44:41;;;;;;;29.27;15.73;;;;;;;-1.13;100.00;101372.69;4962628;28;20027;-70
2022/01/10 03:47:06;;;;;;;35.22;16.55;;;;;;;-1.15;100.00;101358.66;4976332;28;20676;-70
2022/01/10 03:49:31;;;;;;;40.67;17.10;;;;;;;-1.11;100.00;101353.31;4980248;28;20748;-70
2022/01/10 03:51:57;;;;;;;39.00;16.23;;;;;;;-1.08;100.00;101374.34;4982880;28;20089;-70
2022/01/10 03:54:22;;;;;;;49.90;21.48;;;;;;;-0.93;100.00;101372.28;4980694;28;20038;-70
2022/01/10 03:56:48;;;;;;;48.42;18.58;;;;;;;-0.83;100.00;101392.28;4961196;28;20026;-70
2022/01/10 03:59:13;;;;;;;39.47;18.45;;;;;;;-0.83;100.00;101392.28;4981444;28;20034;-70
2022/01/10 04:01:39;;;;;;;43.00;18.77;;;;;;;-0.80;100.00;101388.69;4965118;28;20022;-70
2022/01/10 04:04:06;;;;;;;46.70;19.38;;;;;;;-0.78;100.00;101392.16;4979253;28;22072;-69
2022/01/10 04:06:32;;;;;;;55.17;21.95;;;;;;;-0.81;100.00;101387.84;4981118;28;20141;-69
2022/01/10 04:08:57;;;;;;;46.85;18.77;;;;;;;-0.74;100.00;101396.47;4997022;28;20022;-70
2022/01/10 04:11:22;;;;;;;49.60;19.30;;;;;;;-0.83;100.00;101396.66;4980276;28;20540;-69
2022/01/10 04:13:48;;;;;;;42.17;19.35;;;;;;;-0.86;100.00;101407.28;4981629;28;20046;-70
2022/01/10 04:16:13;;;;;;;58.17;24.52;;;;;;;-0.81;100.00;101413.31;4981703;28;20058;-69
2022/01/10 04:18:39;;;;;;;45.92;21.60;;;;;;;-0.80;100.00;101413.31;4979256;28;20041;-69
2022/01/10 04:21:04;;;;;;;45.35;18.08;;;;;;;-0.86;100.00;101410.81;4981754;28;20030;-69
2022/01/10 04:23:30;;;;;;;40.25;18.55;;;;;;;-0.84;100.00;101427.47;4979138;28;20036;-69
2022/01/10 04:25:56;;;;;;;37.00;15.93;;;;;;;-0.84;100.00;101430.09;4978929;28;20052;-70
2022/01/10 04:28:21;;;;;;;43.40;15.93;;;;;;;-0.84;100.00;101435.38;4982307;28;20472;-69
2022/01/10 04:30:46;;;;;;;35.42;16.83;;;;;;;-0.74;100.00;101443.06;4978908;28;20129;-69
2022/01/10 04:33:17;;;;;;;42.05;17.77;;;;;;;-0.72;100.00;101447.44;4981419;28;20061;-69
2022/01/10 04:35:42;;;;;;;44.88;17.95;;;;;;;-0.66;100.00;101457.81;4979274;28;20034;-70
2022/01/10 04:38:08;;;;;;;47.33;16.98;;;;;;;-0.61;100.00;101457.75;4977250;28;20073;-70
2022/01/10 04:40:33;;;;;;;40.88;17.63;;;;;;;-0.55;100.00;101462.00;4978671;28;20690;-70
2022/01/10 04:42:59;;;;;;;38.03;16.40;;;;;;;-0.50;100.00;101476.84;4976854;28;20034;-70
2022/01/10 04:45:24;;;;;;;31.73;14.30;;;;;;;-0.47;100.00;101495.25;4982025;28;20038;-70
2022/01/10 04:47:49;;;;;;;32.70;17.00;;;;;;;-0.55;100.00;101488.41;4980862;28;20691;-69
2022/01/10 04:52:46;;;;;;;40.00;17.38;;;;;;;-0.60;100.00;101493.78;4975116;28;20477;-70
2022/01/10 04:55:12;;;;;;;39.10;15.98;;;;;;;-0.63;100.00;101504.38;4985222;28;20049;-70
2022/01/10 04:57:37;;;;;;;38.17;16.88;;;;;;;-0.74;100.00;101487.91;4974617;28;20053;-70
2022/01/10 05:00:05;;;;;;;35.45;16.13;;;;;;;-0.79;100.00;101494.13;4978340;28;20034;-69
2022/01/10 05:02:30;;;;;;;41.45;17.90;;;;;;;-0.75;100.00;101510.78;4978448;28;20023;-69
2022/01/10 05:04:55;;;;;;;41.05;19.55;;;;;;;-0.71;100.00;101511.56;4974075;28;20141;-69
2022/01/10 05:07:21;;;;;;;40.25;17.38;;;;;;;-0.83;100.00;101510.06;4976544;28;20447;-70
2022/01/10 05:09:46;;;;;;;37.78;15.77;;;;;;;-0.83;100.00;101536.41;4972611;28;20120;-70
2022/01/10 05:12:12;;;;;;;31.90;14.27;;;;;;;-0.83;100.00;101529.41;4978700;28;20030;-69
2022/01/10 05:14:37;;;;;;;34.85;16.05;;;;;;;-0.74;100.00;101538.00;4976293;28;20153;-70
2022/01/10 05:17:03;;;;;;;39.67;17.42;;;;;;;-0.80;100.00;101542.53;4992012;28;20044;-69
2022/01/10 05:19:28;;;;;;;44.97;18.17;;;;;;;-0.71;100.00;101544.09;4972549;28;20034;-69
2022/01/10 05:21:53;;;;;;;46.03;18.98;;;;;;;-0.59;100.00;101544.75;4977511;28;20469;-69
2022/01/10 05:24:19;;;;;;;42.80;17.55;;;;;;;-0.68;100.00;101549.31;4975815;28;20060;-69
2022/01/10 05:26:44;;;;;;;52.22;17.80;;;;;;;-0.69;100.00;101558.13;4975700;28;20046;-70
2022/01/10 05:29:09;;;;;;;46.30;19.13;;;;;;;-0.68;100.00;101554.59;4977583;28;20506;-70
2022/01/10 05:31:35;;;;;;;60.80;22.17;;;;;;;-0.66;100.00;101565.97;4962354;28;20030;-70
2022/01/10 05:34:01;;;;;;;51.15;19.48;;;;;;;-0.82;100.00;101559.25;4976208;28;20440;-70
2022/01/10 05:36:26;;;;;;;58.83;22.85;;;;;;;-0.67;100.00;101571.28;4975943;28;20146;-69
2022/01/10 05:38:51;;;;;;;54.70;22.55;;;;;;;-0.54;100.00;101580.72;4981498;28;20461;-70
2022/01/10 05:41:17;;;;;;;48.53;17.25;;;;;;;-0.61;100.00;101587.00;4974046;28;20037;-70
2022/01/10 05:43:43;;;;;;;37.83;16.58;;;;;;;-0.64;100.00;101587.91;4976334;28;20030;-70
2022/01/10 05:46:09;;;;;;;34.17;16.17;;;;;;;-0.60;100.00;101601.94;4964508;28;20385;-70
2022/01/10 05:48:36;;;;;;;56.35;20.55;;;;;;;-0.48;100.00;101599.03;4979846;28;21585;-69
2022/01/10 05:51:02;;;;;;;49.30;19.40;;;;;;;-0.35;100.00;101601.44;4963572;28;20393;-69
2022/01/10 05:53:28;;;;;;;37.38;16.52;;;;;;;-0.40;100.00;101609.47;4976648;28;20033;-73
2022/01/10 05:55:53;;;;;;;45.50;18.55;;;;;;;-0.35;100.00;101617.28;4975941;28;20064;-69
2022/01/10 05:58:19;;;;;;;51.97;20.10;;;;;;;-0.33;100.00;101599.66;4977063;28;20038;-69
2022/01/10 06:00:45;;;;;;;53.22;20.17;;;;;;;-0.11;100.00;101612.41;4980340;28;20809;-67
2022/01/10 06:03:10;;;;;;;56.42;22.08;;;;;;;-0.15;100.00;101616.88;4960838;28;20915;-67
2022/01/10 06:05:36;;;;;;;68.60;24.48;;;;;;;-0.11;100.00;101621.19;4964302;28;20036;-68
2022/01/10 06:08:04;;;;;;;73.40;25.30;;;;;;;-0.04;100.00;101616.66;4977079;28;20124;-65
2022/01/10 06:10:30;;;;;;;55.42;20.30;;;;;;;-0.17;100.00;101611.63;4973840;28;20031;-69
2022/01/10 06:12:56;;;;;;;59.90;23.40;;;;;;;-0.10;100.00;101612.34;4962845;28;20070;-69
2022/01/10 06:15:22;;;;;;;61.05;21.65;;;;;;;-0.15;100.00;101630.09;4965308;28;20033;-69
2022/01/10 06:17:47;;;;;;;57.95;23.10;;;;;;;-0.16;100.00;101629.19;4982291;28;20042;-68
2022/01/10 06:20:13;;;;;;;56.45;19.83;;;;;;;-0.27;100.00;101627.69;4979016;28;20030;-68
2022/01/10 06:22:39;;;;;;;58.63;21.23;;;;;;;-0.34;100.00;101621.66;4979405;28;20040;-68
2022/01/10 06:25:06;;;;;;;73.57;24.10;;;;;;;-0.04;100.00;101649.19;4964612;28;20377;-69
2022/01/10 06:27:32;;;;;;;45.35;17.83;;;;;;;-0.16;100.00;101642.41;4973551;28;20046;-70
2022/01/10 06:29:57;;;;;;;47.33;18.90;;;;;;;-0.07;100.00;101651.91;4977087;28;20081;-71
2022/01/10 06:32:22;;;;;;;42.50;18.65;;;;;;;-0.03;100.00;101658.84;4976205;28;20121;-71
2022/01/10 06:34:48;;;;;;;50.33;17.92;;;;;;;-0.02;100.00;101665.03;4974858;28;20508;-70
2022/01/10 06:37:13;;;;;;;51.60;20.88;;;;;;;-0.06;100.00;101658.91;4963711;28;20379;-69
2022/01/10 06:39:39;;;;;;;67.68;26.45;;;;;;;0.28;100.00;101676.72;4962221;28;20109;-70
2022/01/10 06:42:04;;;;;;;66.28;27.52;;;;;;;0.32;100.00;101658.16;4976336;28;20057;-70
2022/01/10 06:44:30;;;;;;;54.13;18.77;;;;;;;0.15;100.00;101680.50;4977036;28;20057;-70
2022/01/10 06:46:56;;;;;;;44.80;17.95;;;;;;;0.17;100.00;101691.91;4977377;28;20038;-70
2022/01/10 06:49:21;;;;;;;48.60;18.73;;;;;;;0.06;100.00;101688.63;4979550;28;20117;-70
2022/01/10 06:51:46;;;;;;;48.35;18.90;;;;;;;0.01;100.00;101696.63;4978931;28;20025;-70
2022/01/10 06:54:11;;;;;;;60.17;23.65;;;;;;;0.08;100.00;101690.31;4977144;28;20057;-70
2022/01/10 06:56:37;;;;;;;51.03;19.02;;;;;;;0.20;100.00;101717.41;4979636;28;20085;-70
2022/01/10 06:59:02;;;;;;;50.80;17.92;;;;;;;0.23;100.00;101720.84;4981999;28;20129;-70
2022/01/10 07:01:27;;;;;;;37.75;16.88;;;;;;;0.33;100.00;101728.59;4977561;28;20049;-70
2022/01/10 07:03:54;;;;;;;43.22;17.73;;;;;;;0.23;100.00;101731.41;4978609;28;20504;-70
2022/01/10 07:06:20;;;;;;;43.10;18.73;;;;;;;0.26;100.00;101741.06;4976770;28;20069;-70
2022/01/10 07:08:45;;;;;;;46.47;16.50;;;;;;;0.16;100.00;101740.34;4966092;28;20034;-70
2022/01/10 07:11:10;;;;;;;46.55;16.42;;;;;;;0.25;100.00;101745.47;4976447;28;20030;-70
2022/01/10 07:13:35;;;;;;;75.75;28.20;;;;;;;0.43;100.00;101743.31;4980677;28;20094;-70
2022/01/10 07:16:01;;;;;;;45.72;19.20;;;;;;;0.41;100.00;101747.78;4959362;28;20398;-70
2022/01/10 07:18:26;;;;;;;49.20;20.08;;;;;;;0.21;100.00;101746.41;4978586;28;20536;-70
2022/01/10 07:20:52;;;;;;;48.97;19.70;;;;;;;0.13;100.00;101757.13;4979562;28;20471;-70
2022/01/10 07:23:17;;;;;;;37.75;17.83;;;;;;;0.29;100.00;101765.63;4985186;28;20034;-70
2022/01/10 07:25:43;;;;;;;36.13;17.02;;;;;;;0.17;100.00;101768.50;4981600;28;20524;-70
2022/01/10 07:28:08;;;;;;;45.58;16.80;;;;;;;0.30;100.00;101790.25;4984040;28;20064;-70
2022/01/10 07:30:33;;;;;;;42.28;16.75;;;;;;;0.13;100.00;101791.47;4985961;28;20058;-70
2022/01/10 07:32:59;;;;;;;59.22;22.60;;;;;;;0.33;100.00;101800.78;4983702;28;20023;-70
2022/01/10 07:35:24;;;;;;;44.78;19.13;;;;;;;0.31;100.00;101799.94;4981936;28;20359;-70
2022/01/10 07:37:50;;;;;;;37.08;16.48;;;;;;;0.22;100.00;101802.78;4987073;28;20027;-70
2022/01/10 07:40:15;;;;;;;37.55;15.98;;;;;;;0.26;100.00;101815.88;4991083;28;20095;-70
2022/01/10 07:42:40;;;;;;;32.55;15.90;;;;;;;0.25;100.00;101823.84;4987060;28;20064;-70
2022/01/10 07:45:06;;;;;;;30.00;15.70;;;;;;;0.18;100.00;101831.00;4980013;28;20040;-70
2022/01/10 07:47:33;;;;;;;36.50;15.43;;;;;;;0.13;100.00;101830.22;4986033;28;20530;-70
2022/01/10 07:49:58;;;;;;;31.42;14.80;;;;;;;0.04;100.00;101841.81;4984594;28;20037;-70
2022/01/10 07:52:25;;;;;;;33.13;14.40;;;;;;;-0.07;100.00;101849.06;4981942;28;20030;-70
2022/01/10 07:54:50;;;;;;;40.28;17.75;;;;;;;-0.34;100.00;101835.41;4971068;28;20034;-70
2022/01/10 07:57:16;;;;;;;38.03;16.05;;;;;;;-0.37;100.00;101843.38;4979821;28;20044;-70
2022/01/10 07:59:41;;;;;;;31.42;14.23;;;;;;;-0.33;100.00;101860.91;4987547;28;20108;-70
2022/01/10 08:02:08;;;;;;;33.97;16.20;;;;;;;-0.54;100.00;101852.44;4979040;28;20054;-70
2022/01/10 08:04:33;;;;;;;35.08;15.73;;;;;;;-0.56;100.00;101856.88;4987549;28;20026;-70
2022/01/10 08:06:59;;;;;;;38.38;18.73;;;;;;;-0.51;100.00;101868.19;4982394;28;20069;-70
2022/01/10 08:09:24;;;;;;;34.95;15.48;;;;;;;-0.57;100.00;101870.06;4984370;28;20057;-70
2022/01/10 08:11:50;;;;;;;40.22;16.02;;;;;;;-0.65;100.00;101872.81;4982213;28;20505;-70
2022/01/10 08:14:15;;;;;;;33.00;15.57;;;;;;;-0.59;100.00;101890.31;4984138;28;20034;-70
2022/01/10 08:16:40;;;;;;;32.95;15.45;;;;;;;-0.62;100.00;101899.16;4985488;28;20070;-70
2022/01/10 08:19:06;;;;;;;37.53;16.42;;;;;;;-0.59;100.00;101901.75;4985966;28;20066;-70
2022/01/10 08:21:31;;;;;;;28.88;14.18;;;;;;;-0.53;100.00;101903.44;4981018;28;20077;-70
2022/01/10 08:23:57;;;;;;;36.45;14.85;;;;;;;-0.52;100.00;101906.03;4984376;28;20095;-70
2022/01/10 08:26:22;;;;;;;46.45;15.68;;;;;;;-0.58;100.00;101913.16;4979667;28;20069;-70
2022/01/10 08:28:48;;;;;;;34.65;16.10;;;;;;;-0.61;100.00;101914.09;4988188;28;20061;-70
2022/01/10 08:31:13;;;;;;;33.50;15.55;;;;;;;-0.62;100.00;101928.19;4982375;28;20072;-70
2022/01/10 08:33:39;;;;;;;29.45;15.75;;;;;;;-0.61;100.00;101941.34;4968589;28;20077;-70
2022/01/10 08:36:04;;;;;;;36.47;15.50;;;;;;;-0.63;100.00;101923.78;4985190;28;20026;-70
2022/01/10 08:38:29;;;;;;;36.13;15.85;;;;;;;-0.51;100.00;101944.72;4986418;28;20038;-70
2022/01/10 08:40:55;;;;;;;34.28;16.05;;;;;;;-0.50;100.00;101945.59;4985034;28;20030;-70
2022/01/10 08:43:20;;;;;;;42.75;18.75;;;;;;;-0.57;100.00;101938.66;4984716;28;20066;-70
2022/01/10 08:45:45;;;;;;;39.35;17.73;;;;;;;-0.39;100.00;101966.56;4986057;28;20038;-70
2022/01/10 08:48:11;;;;;;;45.47;17.45;;;;;;;-0.33;100.00;101961.22;4966500;28;20058;-70
2022/01/10 08:50:37;;;;;;;44.08;18.98;;;;;;;-0.20;100.00;101975.94;4986333;28;20038;-70
2022/01/10 08:53:04;;;;;;;55.33;18.88;;;;;;;-0.13;100.00;101981.16;4980229;28;20434;-67
2022/01/10 08:55:30;;;;;;;37.97;18.48;;;;;;;-0.12;100.00;101983.75;4984677;28;20129;-70
2022/01/10 08:57:55;;;;;;;60.85;22.77;;;;;;;-0.01;100.00;101996.81;4980405;28;20507;-70
2022/01/10 09:00:21;;;;;;;48.05;20.73;;;;;;;0.04;100.00;101996.75;4980010;28;20030;-70
2022/01/10 09:02:46;;;;;;;48.47;20.85;;;;;;;-0.04;100.00;101997.72;4980863;28;20030;-70
2022/01/10 09:05:12;;;;;;;45.00;20.85;;;;;;;-0.07;100.00;101999.56;4983745;28;20035;-71
2022/01/10 09:07:37;;;;;;;45.58;20.95;;;;;;;0.03;100.00;101997.63;4965872;28;20031;-71
2022/01/10 09:10:04;;;;;;;45.03;21.75;;;;;;;0.07;100.00;101996.72;4986150;28;20030;-71
2022/01/10 09:12:31;;;;;;;49.00;20.45;;;;;;;0.04;100.00;102015.22;4981895;28;20030;-70
2022/01/10 09:14:56;;;;;;;51.60;23.10;;;;;;;0.07;100.00;102012.56;4983934;28;20034;-71
2022/01/10 09:17:21;;;;;;;55.33;21.88;;;;;;;0.25;100.00;102024.59;4982135;28;20034;-70
2022/01/10 09:19:47;;;;;;;46.25;22.77;;;;;;;0.14;100.00;102012.44;4983607;28;20044;-70
2022/01/10 09:22:12;;;;;;;49.85;21.38;;;;;;;0.28;100.00;102017.50;4979696;28;20485;-71
2022/01/10 09:24:37;;;;;;;51.67;21.88;;;;;;;0.49;100.00;102027.75;4979003;28;20142;-71
2022/01/10 09:27:03;;;;;;;71.90;23.40;;;;;;;0.40;100.00;102023.47;4981877;28;20094;-71
2022/01/10 09:29:28;;;;;;;84.63;29.83;;;;;;;0.86;100.00;102029.75;4979700;28;20034;-71
2022/01/10 09:31:53;;;;;;;118.97;46.22;;;;;;;1.05;100.00;102032.94;4982756;28;20084;-72
2022/01/10 09:34:19;;;;;;;122.40;41.58;;;;;;;1.01;100.00;102031.25;4980889;28;20089;-71
2022/01/10 09:36:44;;;;;;;87.38;30.48;;;;;;;0.89;100.00;102051.72;4980381;28;20385;-71
2022/01/10 09:39:11;;;;;;;77.85;28.98;;;;;;;0.74;100.00;102042.31;4982501;28;20104;-71
2022/01/10 09:41:37;;;;;;;84.70;26.67;;;;;;;0.97;100.00;102050.69;4979566;28;20034;-71
2022/01/10 09:44:04;;;;;;;80.90;31.65;;;;;;;1.05;100.00;102035.56;4976845;28;20034;-71
2022/01/10 09:46:30;;;;;;;80.90;32.25;;;;;;;1.06;100.00;102045.25;4961182;28;20117;-71
2022/01/10 09:48:57;;;;;;;95.57;37.35;;;;;;;1.27;100.00;102051.03;4978965;28;20354;-71
2022/01/10 09:51:26;;;;;;;108.93;41.95;;;;;;;1.45;100.00;102048.03;4981846;28;20086;-71
2022/01/10 09:53:52;;;;;;;70.32;29.42;;;;;;;1.13;100.00;102061.88;4980817;28;20022;-71
2022/01/10 09:56:18;;;;;;;87.40;30.55;;;;;;;1.29;100.00;102067.75;4978112;28;20029;-71
2022/01/10 09:58:43;;;;;;;59.67;26.55;;;;;;;1.32;100.00;102060.66;4980202;28;20052;-71
2022/01/10 10:01:08;;;;;;;83.45;33.42;;;;;;;1.52;100.00;102074.38;4978291;28;20065;-71
2022/01/10 10:03:34;;;;;;;65.50;29.13;;;;;;;1.31;100.00;102085.38;4974951;28;20081;-71
2022/01/10 10:05:59;;;;;;;60.10;26.42;;;;;;;1.21;100.00;102083.78;4981586;28;20049;-71
2022/01/10 10:08:26;;;;;;;55.05;24.80;;;;;;;1.77;100.00;102072.09;4979874;28;20030;-71
2022/01/10 10:10:52;;;;;;;46.63;19.33;;;;;;;1.87;100.00;102088.66;4964946;28;20026;-71
2022/01/10 10:13:18;;;;;;;65.35;27.02;;;;;;;2.29;100.00;102083.31;4980503;28;20058;-71
2022/01/10 10:15:45;;;;;;;50.35;23.27;;;;;;;3.32;100.00;102089.59;4981520;28;20061;-71
2022/01/10 10:18:15;;;;;;;43.22;20.58;;;;;;;3.71;98.09;102105.31;4984251;28;20034;-71
2022/01/10 10:20:42;;;;;;;40.58;18.77;;;;;;;3.57;95.38;102111.03;4964380;28;20034;-71
2022/01/10 10:23:13;;;;;;;35.17;17.42;;;;;;;3.93;94.19;102102.06;4981277;28;20026;-71
2022/01/10 10:25:45;;;;;;;40.20;20.00;;;;;;;4.23;91.01;102118.00;4979224;28;20034;-71
2022/01/10 10:28:12;;;;;;;38.70;22.40;;;;;;;4.47;92.10;102113.69;4979314;28;20026;-71
2022/01/10 10:30:38;;;;;;;42.80;22.83;;;;;;;5.09;89.52;102124.97;4960560;28;20034;-71
2022/01/10 10:33:15;;;;;;;36.90;18.67;;;;;;;5.10;88.75;102134.72;4982333;28;20054;-71
2022/01/10 10:35:42;;;;;;;37.05;18.42;;;;;;;4.94;88.49;102129.03;4979747;28;20023;-71
2022/01/10 10:38:08;;;;;;;50.35;25.15;;;;;;;5.03;89.14;102130.50;4966288;28;20031;-71
2022/01/10 10:40:39;;;;;;;49.33;23.50;;;;;;;5.26;88.43;102150.16;4980382;28;20033;-71
2022/01/10 10:43:06;;;;;;;55.97;26.63;;;;;;;5.58;85.31;102139.28;4979069;28;20054;-71
2022/01/10 10:45:31;;;;;;;48.65;23.98;;;;;;;5.80;85.91;102142.03;4976187;28;20026;-71
2022/01/10 10:47:59;;;;;;;38.03;16.35;;;;;;;5.86;85.05;102155.16;4976817;28;20031;-70
2022/01/10 10:50:28;;;;;;;36.50;18.23;;;;;;;5.97;81.38;102150.28;4978764;28;20376;-71
2022/01/10 10:52:53;;;;;;;42.42;21.40;;;;;;;6.03;81.61;102156.34;4976941;28;20464;-71
2022/01/10 10:55:19;;;;;;;46.80;23.23;;;;;;;5.93;84.32;102162.00;4979060;28;20068;-71
2022/01/10 10:57:45;;;;;;;39.10;19.05;;;;;;;6.10;81.35;102165.84;4976720;28;20108;-71
2022/01/10 11:00:14;;;;;;;37.90;22.30;;;;;;;5.99;83.65;102145.75;4978468;28;20038;-72
2022/01/10 11:02:40;;;;;;;33.80;17.58;;;;;;;5.98;83.23;102149.34;4977150;28;20085;-71
2022/01/10 11:05:07;;;;;;;34.10;17.00;;;;;;;6.82;78.61;102158.63;4994276;28;20066;-71
2022/01/10 11:07:34;;;;;;;25.63;15.43;;;;;;;6.79;76.66;102162.28;4978350;28;20141;-70